<?xml version="1.0" encoding="UTF-8" standalone="no" ?>
<gpx xmlns="http://www.topografix.com/GPX/1/1" xmlns:xsi="http://www.w3.org/2001/XMLSchema-instance" xsi:schemaLocation="http://www.topografix.com/GPX/1/1 http://www.topografix.com/GPX/1/1/gpx.xsd" version="1.1" creator="VisuGPX - https://www.visugpx.com">
  <metadata>
    <name>Téléphérique du Carciara</name>
    <desc><![CDATA[Téléphérique du Carciara]]></desc>
  </metadata>
  <wpt lat="41.78045" lon="9.25164">
    <ele>623.3</ele>
    <name><![CDATA[PF1]]></name>
    <type><![CDATA[telecabine]]></type>
  </wpt>
  <wpt lat="41.77749" lon="9.25619">
    <ele>601.4</ele>
    <name><![CDATA[PF3 Crête Vangone di a Neve]]></name>
    <type><![CDATA[telecabine]]></type>
  </wpt>
  <wpt lat="41.75502" lon="9.27917">
    <ele>396.3</ele>
    <name><![CDATA[PF6 Punta di Mela]]></name>
    <type><![CDATA[telecabine]]></type>
  </wpt>
  <wpt lat="41.78043" lon="9.25164">
    <ele>623</ele>
    <name><![CDATA[PF1 caseddi Aragali]]></name>
    <type><![CDATA[telecabine]]></type>
  </wpt>
  <wpt lat="41.77002" lon="9.26813">
    <ele>467.9</ele>
    <name><![CDATA[PF5 Piton Peralzone]]></name>
    <type><![CDATA[telecabine]]></type>
  </wpt>
  <wpt lat="41.78043" lon="9.25164">
    <ele>623</ele>
    <name><![CDATA[PF1 caseddi Aragali]]></name>
    <type><![CDATA[telecabine]]></type>
  </wpt>
  <wpt lat="41.77597" lon="9.2586">
    <ele>549.4</ele>
    <name><![CDATA[PF4 Sortie brèche amont]]></name>
    <type><![CDATA[telecabine]]></type>
  </wpt>
  <wpt lat="41.77874" lon="9.25425">
    <ele>620.6</ele>
    <name><![CDATA[PF2 PF oubliée]]></name>
    <type><![CDATA[telecabine]]></type>
  </wpt>
  <trk>
    <name><![CDATA[Chemin du Carciara supérieur (HR23)]]></name>
    <desc><![CDATA[Chemin du Haut-Carciara allant des caseddi d'Aragali (confluence Velacu/Carciara) au GR20 par la rive droite du ruisseau de Carciara.
Chemin restauré par l'association [b][i]"A Punta Bunifazinca"[/i][/b] en mai-juin 2021.]]></desc>
    <extensions>
      <line xmlns="http://www.topografix.com/GPX/gpx_style/0/2">
        <color>FF0000</color>
        <opacity>1</opacity>
        <width>5</width>
          <extensions>
            <sens>1</sens>
          </extensions>
      </line>
    </extensions>
    <trkseg>
      <trkpt lat="41.78042" lon="9.25131">
        <ele>632.9</ele>
      </trkpt>
      <trkpt lat="41.78032" lon="9.25141">
        <ele>628.9</ele>
      </trkpt>
      <trkpt lat="41.78025" lon="9.25126">
        <ele>656</ele>
      </trkpt>
      <trkpt lat="41.78052" lon="9.25113">
        <ele>641.7</ele>
      </trkpt>
      <trkpt lat="41.78073" lon="9.25108">
        <ele>645.6</ele>
      </trkpt>
      <trkpt lat="41.78078" lon="9.25116">
        <ele>666.6</ele>
      </trkpt>
      <trkpt lat="41.78079" lon="9.25118">
        <ele>671.20001220703</ele>
        <time>2021-06-02T08:49:32.000Z</time>
      </trkpt>
      <trkpt lat="41.7808" lon="9.25116">
        <ele>671.79998779297</ele>
        <time>2021-06-02T08:49:35.000Z</time>
      </trkpt>
      <trkpt lat="41.78085" lon="9.25114">
        <ele>672.40002441406</ele>
        <time>2021-06-02T08:49:39.000Z</time>
      </trkpt>
      <trkpt lat="41.78086" lon="9.25112">
        <ele>673</ele>
        <time>2021-06-02T08:49:43.000Z</time>
      </trkpt>
      <trkpt lat="41.78093" lon="9.25113">
        <ele>674</ele>
        <time>2021-06-02T08:49:47.000Z</time>
      </trkpt>
      <trkpt lat="41.78102" lon="9.25109">
        <ele>674.79998779297</ele>
        <time>2021-06-02T08:49:53.000Z</time>
      </trkpt>
      <trkpt lat="41.78107" lon="9.25101">
        <ele>676.20001220703</ele>
        <time>2021-06-02T08:49:59.000Z</time>
      </trkpt>
      <trkpt lat="41.78108" lon="9.25102">
        <ele>677.20001220703</ele>
        <time>2021-06-02T08:50:04.000Z</time>
      </trkpt>
      <trkpt lat="41.7811" lon="9.25101">
        <ele>677.59997558594</ele>
        <time>2021-06-02T08:50:06.000Z</time>
      </trkpt>
      <trkpt lat="41.78116" lon="9.25098">
        <ele>679.40002441406</ele>
        <time>2021-06-02T08:50:15.000Z</time>
      </trkpt>
      <trkpt lat="41.78119" lon="9.25097">
        <ele>680.40002441406</ele>
        <time>2021-06-02T08:50:19.000Z</time>
      </trkpt>
      <trkpt lat="41.7812" lon="9.25098">
        <ele>680.79998779297</ele>
        <time>2021-06-02T08:50:21.000Z</time>
      </trkpt>
      <trkpt lat="41.78124" lon="9.25097">
        <ele>681.79998779297</ele>
        <time>2021-06-02T08:50:25.000Z</time>
      </trkpt>
      <trkpt lat="41.78123" lon="9.25096">
        <ele>682.40002441406</ele>
        <time>2021-06-02T08:50:29.000Z</time>
      </trkpt>
      <trkpt lat="41.78128" lon="9.25093">
        <ele>683.20001220703</ele>
        <time>2021-06-02T08:50:38.000Z</time>
      </trkpt>
      <trkpt lat="41.78137" lon="9.25092">
        <ele>684.59997558594</ele>
        <time>2021-06-02T08:50:46.000Z</time>
      </trkpt>
      <trkpt lat="41.7814" lon="9.2509">
        <ele>684.79998779297</ele>
        <time>2021-06-02T08:50:49.000Z</time>
      </trkpt>
      <trkpt lat="41.78145" lon="9.25086">
        <ele>685.20001220703</ele>
        <time>2021-06-02T08:50:55.000Z</time>
      </trkpt>
      <trkpt lat="41.78151" lon="9.25085">
        <ele>664.2</ele>
        <time>2021-06-02T08:51:02.000Z</time>
      </trkpt>
      <trkpt lat="41.78162" lon="9.25085">
        <ele>685.79998779297</ele>
        <time>2021-06-02T08:51:15.000Z</time>
      </trkpt>
      <trkpt lat="41.78167" lon="9.25089">
        <ele>686.20001220703</ele>
        <time>2021-06-02T08:51:19.000Z</time>
      </trkpt>
      <trkpt lat="41.78168" lon="9.25092">
        <ele>686.79998779297</ele>
        <time>2021-06-02T08:51:24.000Z</time>
      </trkpt>
      <trkpt lat="41.78171" lon="9.25095">
        <ele>687</ele>
        <time>2021-06-02T08:51:32.000Z</time>
      </trkpt>
      <trkpt lat="41.78178" lon="9.25098">
        <ele>687.40002441406</ele>
        <time>2021-06-02T08:51:36.000Z</time>
      </trkpt>
      <trkpt lat="41.78193" lon="9.25102">
        <ele>688.40002441406</ele>
        <time>2021-06-02T08:51:45.000Z</time>
      </trkpt>
      <trkpt lat="41.78196" lon="9.25099">
        <ele>690.79998779297</ele>
        <time>2021-06-02T08:51:58.000Z</time>
      </trkpt>
      <trkpt lat="41.78202" lon="9.251">
        <ele>691.79998779297</ele>
        <time>2021-06-02T08:52:04.000Z</time>
      </trkpt>
      <trkpt lat="41.7821" lon="9.25104">
        <ele>692.79998779297</ele>
        <time>2021-06-02T08:52:11.000Z</time>
      </trkpt>
      <trkpt lat="41.78218" lon="9.25111">
        <ele>693</ele>
        <time>2021-06-02T08:52:17.000Z</time>
      </trkpt>
      <trkpt lat="41.78219" lon="9.25113">
        <ele>693.20001220703</ele>
        <time>2021-06-02T08:52:21.000Z</time>
      </trkpt>
      <trkpt lat="41.7823" lon="9.25118">
        <ele>693.20001220703</ele>
        <time>2021-06-02T08:52:24.000Z</time>
      </trkpt>
      <trkpt lat="41.7824" lon="9.25126">
        <ele>691.59997558594</ele>
        <time>2021-06-02T08:52:36.000Z</time>
      </trkpt>
      <trkpt lat="41.78238" lon="9.25126">
        <ele>690.79998779297</ele>
        <time>2021-06-02T08:52:40.000Z</time>
      </trkpt>
      <trkpt lat="41.78244" lon="9.25131">
        <ele>691</ele>
        <time>2021-06-02T08:52:46.000Z</time>
      </trkpt>
      <trkpt lat="41.78245" lon="9.25131">
        <ele>691.40002441406</ele>
        <time>2021-06-02T08:52:48.000Z</time>
      </trkpt>
      <trkpt lat="41.78254" lon="9.25134">
        <ele>692.59997558594</ele>
        <time>2021-06-02T08:52:53.000Z</time>
      </trkpt>
      <trkpt lat="41.78261" lon="9.25138">
        <ele>694.40002441406</ele>
        <time>2021-06-02T08:52:59.000Z</time>
      </trkpt>
      <trkpt lat="41.78263" lon="9.25141">
        <ele>695.20001220703</ele>
        <time>2021-06-02T08:53:03.000Z</time>
      </trkpt>
      <trkpt lat="41.78266" lon="9.25145">
        <ele>695.79998779297</ele>
        <time>2021-06-02T08:53:07.000Z</time>
      </trkpt>
      <trkpt lat="41.78271" lon="9.25144">
        <ele>697</ele>
        <time>2021-06-02T08:53:13.000Z</time>
      </trkpt>
      <trkpt lat="41.7827" lon="9.25143">
        <ele>697.59997558594</ele>
        <time>2021-06-02T08:53:15.000Z</time>
      </trkpt>
      <trkpt lat="41.78275" lon="9.25143">
        <ele>698.20001220703</ele>
        <time>2021-06-02T08:53:18.000Z</time>
      </trkpt>
      <trkpt lat="41.78282" lon="9.25143">
        <ele>699.40002441406</ele>
        <time>2021-06-02T08:53:21.000Z</time>
      </trkpt>
      <trkpt lat="41.78283" lon="9.25141">
        <ele>700</ele>
        <time>2021-06-02T08:53:25.000Z</time>
      </trkpt>
      <trkpt lat="41.7829" lon="9.25141">
        <ele>700.59997558594</ele>
        <time>2021-06-02T08:53:27.000Z</time>
      </trkpt>
      <trkpt lat="41.78303" lon="9.25145">
        <ele>702</ele>
        <time>2021-06-02T08:53:33.000Z</time>
      </trkpt>
      <trkpt lat="41.78304" lon="9.25146">
        <ele>702.59997558594</ele>
        <time>2021-06-02T08:53:36.000Z</time>
      </trkpt>
      <trkpt lat="41.78303" lon="9.25142">
        <ele>703.20001220703</ele>
        <time>2021-06-02T08:53:38.000Z</time>
      </trkpt>
      <trkpt lat="41.78304" lon="9.25138">
        <ele>704.79998779297</ele>
        <time>2021-06-02T08:53:45.000Z</time>
      </trkpt>
      <trkpt lat="41.78305" lon="9.25136">
        <ele>705.79998779297</ele>
        <time>2021-06-02T08:53:48.000Z</time>
      </trkpt>
      <trkpt lat="41.78308" lon="9.25134">
        <ele>707.20001220703</ele>
        <time>2021-06-02T08:53:54.000Z</time>
      </trkpt>
      <trkpt lat="41.78315" lon="9.25134">
        <ele>708.79998779297</ele>
        <time>2021-06-02T08:54:01.000Z</time>
      </trkpt>
      <trkpt lat="41.78319" lon="9.25134">
        <ele>709.79998779297</ele>
        <time>2021-06-02T08:54:05.000Z</time>
      </trkpt>
      <trkpt lat="41.78319" lon="9.25133">
        <ele>710.59997558594</ele>
        <time>2021-06-02T08:54:10.000Z</time>
      </trkpt>
      <trkpt lat="41.78322" lon="9.25131">
        <ele>711.40002441406</ele>
        <time>2021-06-02T08:54:14.000Z</time>
      </trkpt>
      <trkpt lat="41.78325" lon="9.25133">
        <ele>712.59997558594</ele>
        <time>2021-06-02T08:54:18.000Z</time>
      </trkpt>
      <trkpt lat="41.78327" lon="9.25134">
        <ele>714</ele>
        <time>2021-06-02T08:54:26.000Z</time>
      </trkpt>
      <trkpt lat="41.78329" lon="9.25133">
        <ele>714.79998779297</ele>
        <time>2021-06-02T08:54:29.000Z</time>
      </trkpt>
      <trkpt lat="41.78331" lon="9.25132">
        <ele>715.40002441406</ele>
        <time>2021-06-02T08:54:33.000Z</time>
      </trkpt>
      <trkpt lat="41.78333" lon="9.25131">
        <ele>715.79998779297</ele>
        <time>2021-06-02T08:54:36.000Z</time>
      </trkpt>
      <trkpt lat="41.78341" lon="9.25133">
        <ele>717</ele>
        <time>2021-06-02T08:54:42.000Z</time>
      </trkpt>
      <trkpt lat="41.7835" lon="9.25136">
        <ele>718.20001220703</ele>
        <time>2021-06-02T08:54:48.000Z</time>
      </trkpt>
      <trkpt lat="41.7835" lon="9.25134">
        <ele>718.20001220703</ele>
        <time>2021-06-02T08:54:50.000Z</time>
      </trkpt>
      <trkpt lat="41.78352" lon="9.25134">
        <ele>718.40002441406</ele>
        <time>2021-06-02T08:54:53.000Z</time>
      </trkpt>
      <trkpt lat="41.78351" lon="9.25132">
        <ele>720</ele>
        <time>2021-06-02T08:55:01.000Z</time>
      </trkpt>
      <trkpt lat="41.78352" lon="9.2513">
        <ele>720.20001220703</ele>
        <time>2021-06-02T08:55:04.000Z</time>
      </trkpt>
      <trkpt lat="41.78364" lon="9.25133">
        <ele>721.20001220703</ele>
        <time>2021-06-02T08:55:09.000Z</time>
      </trkpt>
      <trkpt lat="41.7837" lon="9.25134">
        <ele>722</ele>
        <time>2021-06-02T08:55:13.000Z</time>
      </trkpt>
      <trkpt lat="41.78373" lon="9.25135">
        <ele>722.40002441406</ele>
        <time>2021-06-02T08:55:15.000Z</time>
      </trkpt>
      <trkpt lat="41.78385" lon="9.25139">
        <ele>724.40002441406</ele>
        <time>2021-06-02T08:55:23.000Z</time>
      </trkpt>
      <trkpt lat="41.78385" lon="9.25141">
        <ele>724.79998779297</ele>
        <time>2021-06-02T08:55:25.000Z</time>
      </trkpt>
      <trkpt lat="41.78393" lon="9.25138">
        <ele>704.3</ele>
        <time>2021-06-02T08:55:29.000Z</time>
      </trkpt>
      <trkpt lat="41.78402" lon="9.25141">
        <ele>707.6</ele>
      </trkpt>
      <trkpt lat="41.78406" lon="9.25145">
        <ele>707.8</ele>
        <time>2021-06-02T08:55:38.000Z</time>
      </trkpt>
      <trkpt lat="41.78415" lon="9.25149">
        <ele>710.4</ele>
        <time>2021-06-02T08:55:45.000Z</time>
      </trkpt>
      <trkpt lat="41.78421" lon="9.25154">
        <ele>712.4</ele>
        <time>2021-06-02T08:55:55.000Z</time>
      </trkpt>
      <trkpt lat="41.7843" lon="9.25159">
        <ele>716.3</ele>
      </trkpt>
      <trkpt lat="41.78441" lon="9.25165">
        <ele>718.4</ele>
        <time>2021-06-02T08:56:19.000Z</time>
      </trkpt>
      <trkpt lat="41.78454" lon="9.25177">
        <ele>721.7</ele>
        <time>2021-06-02T08:56:33.000Z</time>
      </trkpt>
      <trkpt lat="41.78465" lon="9.25184">
        <ele>725.1</ele>
        <time>2021-06-02T08:56:51.000Z</time>
      </trkpt>
      <trkpt lat="41.78477" lon="9.25192">
        <ele>725.3</ele>
        <time>2021-06-02T08:56:59.000Z</time>
      </trkpt>
      <trkpt lat="41.78489" lon="9.25205">
        <ele>725.3</ele>
        <time>2021-06-02T08:57:14.000Z</time>
      </trkpt>
      <trkpt lat="41.78502" lon="9.25217">
        <ele>725</ele>
        <time>2021-06-02T08:57:27.000Z</time>
      </trkpt>
      <trkpt lat="41.78515" lon="9.25231">
        <ele>726.5</ele>
        <time>2021-06-02T08:58:14.000Z</time>
      </trkpt>
      <trkpt lat="41.78534" lon="9.2525">
        <ele>730.1</ele>
        <time>2021-06-02T08:58:19.000Z</time>
      </trkpt>
      <trkpt lat="41.78562" lon="9.25277">
        <ele>739.7</ele>
        <time>2021-06-02T08:58:44.000Z</time>
      </trkpt>
      <trkpt lat="41.78588" lon="9.25282">
        <ele>759</ele>
        <time>2021-06-02T08:59:10.000Z</time>
      </trkpt>
      <trkpt lat="41.78609" lon="9.25292">
        <ele>754.2</ele>
      </trkpt>
      <trkpt lat="41.78624" lon="9.253">
        <ele>757.4</ele>
        <time>2021-06-02T09:00:33.000Z</time>
      </trkpt>
      <trkpt lat="41.78633" lon="9.25306">
        <ele>759.8</ele>
        <time>2021-06-02T09:02:13.000Z</time>
      </trkpt>
      <trkpt lat="41.78642" lon="9.25311">
        <ele>761.8</ele>
        <time>2021-06-02T09:02:28.000Z</time>
      </trkpt>
      <trkpt lat="41.78666" lon="9.25329">
        <ele>765.7</ele>
        <time>2021-06-02T09:02:32.000Z</time>
      </trkpt>
      <trkpt lat="41.78681" lon="9.25322">
        <ele>772.8</ele>
        <time>2021-06-02T09:02:40.000Z</time>
      </trkpt>
      <trkpt lat="41.78693" lon="9.25317">
        <ele>778.4</ele>
      </trkpt>
      <trkpt lat="41.78726" lon="9.2533">
        <ele>785.6</ele>
        <time>2021-06-02T09:05:36.000Z</time>
      </trkpt>
      <trkpt lat="41.78723" lon="9.25384">
        <ele>785.7</ele>
        <time>2021-06-02T09:05:55.000Z</time>
      </trkpt>
      <trkpt lat="41.78723" lon="9.25425">
        <ele>790.9</ele>
        <time>2021-06-02T09:06:01.000Z</time>
      </trkpt>
      <trkpt lat="41.78723" lon="9.25492">
        <ele>795</ele>
        <time>2021-06-02T09:06:04.000Z</time>
      </trkpt>
      <trkpt lat="41.78735" lon="9.25508">
        <ele>801.8</ele>
        <time>2021-06-02T09:06:25.000Z</time>
      </trkpt>
      <trkpt lat="41.78746" lon="9.25521">
        <ele>806.7</ele>
        <time>2021-06-02T09:06:35.000Z</time>
      </trkpt>
      <trkpt lat="41.78757" lon="9.25531">
        <ele>821</ele>
        <time>2021-06-02T09:07:14.000Z</time>
      </trkpt>
      <trkpt lat="41.78772" lon="9.25551">
        <ele>818</ele>
        <time>2021-06-02T09:07:40.000Z</time>
      </trkpt>
      <trkpt lat="41.78782" lon="9.25571">
        <ele>819.4</ele>
      </trkpt>
      <trkpt lat="41.78786" lon="9.25577">
        <ele>820</ele>
      </trkpt>
      <trkpt lat="41.78818" lon="9.25569">
        <ele>845.9</ele>
        <time>2021-06-02T09:08:03.000Z</time>
      </trkpt>
      <trkpt lat="41.7884" lon="9.25571">
        <ele>845.5</ele>
        <time>2021-06-02T09:08:36.000Z</time>
      </trkpt>
      <trkpt lat="41.7886" lon="9.25573">
        <ele>849.8</ele>
        <time>2021-06-02T09:08:58.000Z</time>
      </trkpt>
      <trkpt lat="41.78874" lon="9.25558">
        <ele>858.7</ele>
        <time>2021-06-02T09:09:06.000Z</time>
      </trkpt>
      <trkpt lat="41.78917" lon="9.2556">
        <ele>870.3</ele>
        <time>2021-06-02T09:09:29.000Z</time>
      </trkpt>
      <trkpt lat="41.78933" lon="9.25545">
        <ele>892.2</ele>
        <time>2021-06-02T09:12:22.000Z</time>
      </trkpt>
      <trkpt lat="41.78946" lon="9.25538">
        <ele>903.40002441406</ele>
        <time>2021-06-02T09:14:53.000Z</time>
      </trkpt>
      <trkpt lat="41.78952" lon="9.25534">
        <ele>906.40002441406</ele>
        <time>2021-06-02T09:15:06.000Z</time>
      </trkpt>
      <trkpt lat="41.78948" lon="9.25535">
        <ele>907.79998779297</ele>
        <time>2021-06-02T09:15:18.000Z</time>
      </trkpt>
      <trkpt lat="41.78951" lon="9.25536">
        <ele>908.20001220703</ele>
        <time>2021-06-02T09:15:24.000Z</time>
      </trkpt>
      <trkpt lat="41.78949" lon="9.25532">
        <ele>909.79998779297</ele>
        <time>2021-06-02T09:15:45.000Z</time>
      </trkpt>
      <trkpt lat="41.78951" lon="9.25525">
        <ele>911.20001220703</ele>
        <time>2021-06-02T09:15:52.000Z</time>
      </trkpt>
      <trkpt lat="41.78955" lon="9.25525">
        <ele>912.40002441406</ele>
        <time>2021-06-02T09:15:57.000Z</time>
      </trkpt>
      <trkpt lat="41.78955" lon="9.25522">
        <ele>913.79998779297</ele>
        <time>2021-06-02T09:16:02.000Z</time>
      </trkpt>
      <trkpt lat="41.78955" lon="9.25521">
        <ele>915</ele>
        <time>2021-06-02T09:16:06.000Z</time>
      </trkpt>
      <trkpt lat="41.78956" lon="9.25521">
        <ele>915.79998779297</ele>
        <time>2021-06-02T09:16:10.000Z</time>
      </trkpt>
      <trkpt lat="41.78956" lon="9.25518">
        <ele>917.59997558594</ele>
        <time>2021-06-02T09:16:17.000Z</time>
      </trkpt>
      <trkpt lat="41.7896" lon="9.25515">
        <ele>918.59997558594</ele>
        <time>2021-06-02T09:16:24.000Z</time>
      </trkpt>
      <trkpt lat="41.78952" lon="9.25509">
        <ele>920</ele>
        <time>2021-06-02T09:16:33.000Z</time>
      </trkpt>
      <trkpt lat="41.78951" lon="9.25501">
        <ele>921.59997558594</ele>
        <time>2021-06-02T09:16:42.000Z</time>
      </trkpt>
      <trkpt lat="41.78954" lon="9.25499">
        <ele>922.20001220703</ele>
        <time>2021-06-02T09:16:45.000Z</time>
      </trkpt>
      <trkpt lat="41.78956" lon="9.25496">
        <ele>923</ele>
        <time>2021-06-02T09:16:49.000Z</time>
      </trkpt>
      <trkpt lat="41.7896" lon="9.25498">
        <ele>924.20001220703</ele>
        <time>2021-06-02T09:16:55.000Z</time>
      </trkpt>
      <trkpt lat="41.78962" lon="9.25499">
        <ele>924.79998779297</ele>
        <time>2021-06-02T09:16:57.000Z</time>
      </trkpt>
      <trkpt lat="41.78968" lon="9.25499">
        <ele>925.40002441406</ele>
        <time>2021-06-02T09:17:03.000Z</time>
      </trkpt>
      <trkpt lat="41.78971" lon="9.255">
        <ele>926.40002441406</ele>
        <time>2021-06-02T09:17:09.000Z</time>
      </trkpt>
      <trkpt lat="41.78973" lon="9.255">
        <ele>927.20001220703</ele>
        <time>2021-06-02T09:17:12.000Z</time>
      </trkpt>
      <trkpt lat="41.78975" lon="9.25501">
        <ele>928</ele>
        <time>2021-06-02T09:17:15.000Z</time>
      </trkpt>
      <trkpt lat="41.78975" lon="9.255">
        <ele>929</ele>
        <time>2021-06-02T09:17:20.000Z</time>
      </trkpt>
      <trkpt lat="41.78979" lon="9.25498">
        <ele>930.59997558594</ele>
        <time>2021-06-02T09:17:26.000Z</time>
      </trkpt>
      <trkpt lat="41.78981" lon="9.25498">
        <ele>931.59997558594</ele>
        <time>2021-06-02T09:17:31.000Z</time>
      </trkpt>
      <trkpt lat="41.78986" lon="9.25504">
        <ele>933.20001220703</ele>
        <time>2021-06-02T09:17:39.000Z</time>
      </trkpt>
      <trkpt lat="41.78987" lon="9.25503">
        <ele>934.59997558594</ele>
        <time>2021-06-02T09:17:45.000Z</time>
      </trkpt>
      <trkpt lat="41.78987" lon="9.255">
        <ele>935.59997558594</ele>
        <time>2021-06-02T09:17:50.000Z</time>
      </trkpt>
      <trkpt lat="41.78989" lon="9.25491">
        <ele>937.79998779297</ele>
        <time>2021-06-02T09:18:00.000Z</time>
      </trkpt>
      <trkpt lat="41.7899" lon="9.25486">
        <ele>939.40002441406</ele>
        <time>2021-06-02T09:18:09.000Z</time>
      </trkpt>
      <trkpt lat="41.78995" lon="9.25489">
        <ele>941</ele>
        <time>2021-06-02T09:18:16.000Z</time>
      </trkpt>
      <trkpt lat="41.79" lon="9.2549">
        <ele>942.79998779297</ele>
        <time>2021-06-02T09:18:25.000Z</time>
      </trkpt>
      <trkpt lat="41.79003" lon="9.25487">
        <ele>943.79998779297</ele>
        <time>2021-06-02T09:18:30.000Z</time>
      </trkpt>
      <trkpt lat="41.79008" lon="9.25487">
        <ele>945.20001220703</ele>
        <time>2021-06-02T09:18:37.000Z</time>
      </trkpt>
      <trkpt lat="41.79016" lon="9.25488">
        <ele>938</ele>
        <time>2021-06-02T09:18:46.000Z</time>
      </trkpt>
      <trkpt lat="41.79017" lon="9.25482">
        <ele>949.79998779297</ele>
        <time>2021-06-02T09:18:59.000Z</time>
      </trkpt>
      <trkpt lat="41.7902" lon="9.2548">
        <ele>951.40002441406</ele>
        <time>2021-06-02T09:19:06.000Z</time>
      </trkpt>
      <trkpt lat="41.79023" lon="9.25481">
        <ele>952.79998779297</ele>
        <time>2021-06-02T09:19:12.000Z</time>
      </trkpt>
      <trkpt lat="41.79026" lon="9.25484">
        <ele>954.79998779297</ele>
        <time>2021-06-02T09:20:12.000Z</time>
      </trkpt>
      <trkpt lat="41.79032" lon="9.25488">
        <ele>956.20001220703</ele>
        <time>2021-06-02T09:20:17.000Z</time>
      </trkpt>
      <trkpt lat="41.79029" lon="9.25495">
        <ele>945.7</ele>
        <time>2021-06-02T09:20:22.000Z</time>
      </trkpt>
      <trkpt lat="41.79027" lon="9.25498">
        <ele>944.4</ele>
        <time>2021-06-02T09:20:28.000Z</time>
      </trkpt>
      <trkpt lat="41.79027" lon="9.25502">
        <ele>944.5</ele>
        <time>2021-06-02T09:20:32.000Z</time>
      </trkpt>
      <trkpt lat="41.79029" lon="9.25506">
        <ele>945</ele>
        <time>2021-06-02T09:20:37.000Z</time>
      </trkpt>
      <trkpt lat="41.79032" lon="9.2551">
        <ele>946.5</ele>
      </trkpt>
      <trkpt lat="41.79036" lon="9.25515">
        <ele>963.79998779297</ele>
        <time>2021-06-02T09:21:08.000Z</time>
      </trkpt>
      <trkpt lat="41.79038" lon="9.25518">
        <ele>964.59997558594</ele>
        <time>2021-06-02T09:21:11.000Z</time>
      </trkpt>
      <trkpt lat="41.7904" lon="9.25516">
        <ele>966</ele>
        <time>2021-06-02T09:21:17.000Z</time>
      </trkpt>
      <trkpt lat="41.79043" lon="9.25513">
        <ele>967.79998779297</ele>
        <time>2021-06-02T09:21:26.000Z</time>
      </trkpt>
      <trkpt lat="41.79044" lon="9.25509">
        <ele>969.20001220703</ele>
        <time>2021-06-02T09:21:32.000Z</time>
      </trkpt>
      <trkpt lat="41.79046" lon="9.25506">
        <ele>956</ele>
        <time>2021-06-02T09:21:42.000Z</time>
      </trkpt>
      <trkpt lat="41.79048" lon="9.2551">
        <ele>971.59997558594</ele>
        <time>2021-06-02T09:21:52.000Z</time>
      </trkpt>
      <trkpt lat="41.79048" lon="9.25511">
        <ele>970.79998779297</ele>
        <time>2021-06-02T09:22:40.000Z</time>
      </trkpt>
      <trkpt lat="41.79051" lon="9.25511">
        <ele>959</ele>
        <time>2021-06-02T09:23:05.000Z</time>
      </trkpt>
      <trkpt lat="41.79055" lon="9.25514">
        <ele>961</ele>
        <time>2021-06-02T09:23:15.000Z</time>
      </trkpt>
      <trkpt lat="41.79057" lon="9.25517">
        <ele>970.40002441406</ele>
        <time>2021-06-02T09:23:20.000Z</time>
      </trkpt>
      <trkpt lat="41.79059" lon="9.25517">
        <ele>970.79998779297</ele>
        <time>2021-06-02T09:23:25.000Z</time>
      </trkpt>
      <trkpt lat="41.79061" lon="9.25516">
        <ele>972.40002441406</ele>
        <time>2021-06-02T09:23:30.000Z</time>
      </trkpt>
      <trkpt lat="41.79064" lon="9.25511">
        <ele>973.40002441406</ele>
        <time>2021-06-02T09:23:36.000Z</time>
      </trkpt>
      <trkpt lat="41.79065" lon="9.25513">
        <ele>974.59997558594</ele>
        <time>2021-06-02T09:23:41.000Z</time>
      </trkpt>
      <trkpt lat="41.79065" lon="9.25513">
        <ele>977</ele>
        <time>2021-06-02T09:24:02.000Z</time>
      </trkpt>
      <trkpt lat="41.79068" lon="9.25516">
        <ele>966.9</ele>
        <time>2021-06-02T09:24:18.000Z</time>
      </trkpt>
      <trkpt lat="41.79071" lon="9.25517">
        <ele>968.4</ele>
        <time>2021-06-02T09:24:20.000Z</time>
      </trkpt>
      <trkpt lat="41.79075" lon="9.2552">
        <ele>970.5</ele>
        <time>2021-06-02T09:24:32.000Z</time>
      </trkpt>
      <trkpt lat="41.79077" lon="9.25521">
        <ele>972.1</ele>
        <time>2021-06-02T09:24:36.000Z</time>
      </trkpt>
      <trkpt lat="41.79085" lon="9.25522">
        <ele>975.5</ele>
        <time>2021-06-02T09:24:41.000Z</time>
      </trkpt>
      <trkpt lat="41.79094" lon="9.25529">
        <ele>987.20001220703</ele>
        <time>2021-06-02T09:24:49.000Z</time>
      </trkpt>
      <trkpt lat="41.79096" lon="9.25534">
        <ele>986.40002441406</ele>
        <time>2021-06-02T09:24:57.000Z</time>
      </trkpt>
      <trkpt lat="41.79098" lon="9.25535">
        <ele>985.40002441406</ele>
        <time>2021-06-02T09:25:00.000Z</time>
      </trkpt>
      <trkpt lat="41.79109" lon="9.25532">
        <ele>984.59997558594</ele>
        <time>2021-06-02T09:25:11.000Z</time>
      </trkpt>
      <trkpt lat="41.79113" lon="9.25531">
        <ele>984.40002441406</ele>
        <time>2021-06-02T09:25:14.000Z</time>
      </trkpt>
      <trkpt lat="41.79116" lon="9.25531">
        <ele>983.79998779297</ele>
        <time>2021-06-02T09:25:17.000Z</time>
      </trkpt>
      <trkpt lat="41.7912" lon="9.25531">
        <ele>984</ele>
        <time>2021-06-02T09:25:23.000Z</time>
      </trkpt>
      <trkpt lat="41.79122" lon="9.25532">
        <ele>984.59997558594</ele>
        <time>2021-06-02T09:25:28.000Z</time>
      </trkpt>
      <trkpt lat="41.79123" lon="9.25532">
        <ele>985.40002441406</ele>
        <time>2021-06-02T09:25:30.000Z</time>
      </trkpt>
      <trkpt lat="41.79126" lon="9.25539">
        <ele>986.59997558594</ele>
        <time>2021-06-02T09:25:37.000Z</time>
      </trkpt>
      <trkpt lat="41.79129" lon="9.25538">
        <ele>987.79998779297</ele>
        <time>2021-06-02T09:25:42.000Z</time>
      </trkpt>
      <trkpt lat="41.79131" lon="9.25541">
        <ele>988.40002441406</ele>
        <time>2021-06-02T09:25:47.000Z</time>
      </trkpt>
      <trkpt lat="41.79136" lon="9.2555">
        <ele>990</ele>
        <time>2021-06-02T09:25:55.000Z</time>
      </trkpt>
      <trkpt lat="41.79139" lon="9.25554">
        <ele>990.40002441406</ele>
        <time>2021-06-02T09:25:58.000Z</time>
      </trkpt>
      <trkpt lat="41.79143" lon="9.25552">
        <ele>992.20001220703</ele>
        <time>2021-06-02T09:26:12.000Z</time>
      </trkpt>
      <trkpt lat="41.79146" lon="9.25555">
        <ele>988.9</ele>
        <time>2021-06-02T09:26:28.000Z</time>
      </trkpt>
      <trkpt lat="41.79152" lon="9.25554">
        <ele>998.40002441406</ele>
        <time>2021-06-02T09:27:21.000Z</time>
      </trkpt>
      <trkpt lat="41.79158" lon="9.25548">
        <ele>1000.799987793</ele>
        <time>2021-06-02T09:27:33.000Z</time>
      </trkpt>
      <trkpt lat="41.79165" lon="9.25543">
        <ele>996</ele>
        <time>2021-06-02T09:27:41.000Z</time>
      </trkpt>
      <trkpt lat="41.79174" lon="9.25541">
        <ele>1000.1</ele>
        <time>2021-06-02T09:27:49.000Z</time>
      </trkpt>
      <trkpt lat="41.79181" lon="9.25537">
        <ele>1002.9</ele>
        <time>2021-06-02T09:28:02.000Z</time>
      </trkpt>
      <trkpt lat="41.79188" lon="9.25537">
        <ele>1006.1</ele>
      </trkpt>
      <trkpt lat="41.79196" lon="9.25542">
        <ele>1010.5</ele>
        <time>2021-06-02T09:28:25.000Z</time>
        <extensions>
          <visugpx:TrkExtension xmlns:visugpx="https://www.visugpx.com/editgpx/">
            <visugpx:node>1</visugpx:node>
            </visugpx:TrkExtension>
        </extensions>
      </trkpt>
    </trkseg>
  </trk>
</gpx>